sensor_id;sensor_type;location;lat;lon;timestamp;pressure;altitude;pressure_sealevel;temperature;humidity
3780;BME280;1905;52.482;9.802;2024-01-15T00:01:50;99206.16;;;2.75;99.32
3780;BME280;1905;52.482;9.802;2024-01-15T00:04:41;99198.31;;;2.75;99.54
3780;BME280;1905;52.482;9.802;2024-01-15T00:07:24;99200.06;;;2.75;99.77
3780;BME280;1905;52.482;9.802;2024-01-15T00:10:18;99196.66;;;2.74;99.29
3780;BME280;1905;52.482;9.802;2024-01-15T00:13:28;99194.16;;;2.71;99.61
3780;BME280;1905;52.482;9.802;2024-01-15T00:16:41;99195.81;;;2.72;99.74
3780;BME280;1905;52.482;9.802;2024-01-15T00:19:22;99191.44;;;2.74;99.99
3780;BME280;1905;52.482;9.802;2024-01-15T00:22:09;99180.19;;;2.72;99.43
3780;BME280;1905;52.482;9.802;2024-01-15T00:25:25;99189.03;;;2.68;99.96
3780;BME280;1905;52.482;9.802;2024-01-15T00:28:51;99184.03;;;2.62;100.00
3780;BME280;1905;52.482;9.802;2024-01-15T00:31:40;99170.13;;;2.63;99.68
3780;BME280;1905;52.482;9.802;2024-01-15T00:34:08;99156.03;;;2.69;100.00
3780;BME280;1905;52.482;9.802;2024-01-15T00:36:35;99151.69;;;2.68;99.87
3780;BME280;1905;52.482;9.802;2024-01-15T00:39:03;99142.13;;;2.68;99.20
3780;BME280;1905;52.482;9.802;2024-01-15T00:41:31;99144.78;;;2.67;99.22
3780;BME280;1905;52.482;9.802;2024-01-15T00:43:59;99154.50;;;2.63;99.84
3780;BME280;1905;52.482;9.802;2024-01-15T00:46:27;99158.78;;;2.64;99.11
3780;BME280;1905;52.482;9.802;2024-01-15T00:48:56;99152.00;;;2.60;99.93
3780;BME280;1905;52.482;9.802;2024-01-15T00:51:24;99150.97;;;2.64;98.72
3780;BME280;1905;52.482;9.802;2024-01-15T00:53:51;99146.72;;;2.62;99.71
3780;BME280;1905;52.482;9.802;2024-01-15T00:56:19;99148.47;;;2.61;99.93
3780;BME280;1905;52.482;9.802;2024-01-15T00:58:46;99143.25;;;2.61;99.05
3780;BME280;1905;52.482;9.802;2024-01-15T01:01:14;99140.63;;;2.61;99.14
3780;BME280;1905;52.482;9.802;2024-01-15T01:03:42;99149.38;;;2.60;99.39
3780;BME280;1905;52.482;9.802;2024-01-15T01:06:11;99149.28;;;2.63;98.97
3780;BME280;1905;52.482;9.802;2024-01-15T01:08:39;99136.41;;;2.59;99.93
3780;BME280;1905;52.482;9.802;2024-01-15T01:11:06;99141.59;;;2.59;99.32
3780;BME280;1905;52.482;9.802;2024-01-15T01:13:34;99143.44;;;2.57;98.82
3780;BME280;1905;52.482;9.802;2024-01-15T01:16:02;99137.34;;;2.56;98.92
3780;BME280;1905;52.482;9.802;2024-01-15T01:18:30;99132.22;;;2.55;99.52
3780;BME280;1905;52.482;9.802;2024-01-15T01:20:58;99130.47;;;2.55;99.20
3780;BME280;1905;52.482;9.802;2024-01-15T01:23:27;99128.66;;;2.57;99.63
3780;BME280;1905;52.482;9.802;2024-01-15T01:25:54;99133.19;;;2.52;98.80
3780;BME280;1905;52.482;9.802;2024-01-15T01:28:22;99131.53;;;2.50;99.23
3780;BME280;1905;52.482;9.802;2024-01-15T01:30:49;99133.19;;;2.52;98.75
3780;BME280;1905;52.482;9.802;2024-01-15T01:33:17;99129.72;;;2.52;99.45
3780;BME280;1905;52.482;9.802;2024-01-15T01:35:45;99123.88;;;2.45;98.46
3780;BME280;1905;52.482;9.802;2024-01-15T01:38:13;99116.72;;;2.50;98.89
3780;BME280;1905;52.482;9.802;2024-01-15T01:40:42;99118.56;;;2.48;99.04
3780;BME280;1905;52.482;9.802;2024-01-15T01:43:09;99115.16;;;2.46;99.36
3780;BME280;1905;52.482;9.802;2024-01-15T01:45:37;99115.06;;;2.49;98.67
3780;BME280;1905;52.482;9.802;2024-01-15T01:48:06;99119.41;;;2.49;98.64
3780;BME280;1905;52.482;9.802;2024-01-15T01:50:34;99122.00;;;2.49;99.02
3780;BME280;1905;52.482;9.802;2024-01-15T01:53:02;99121.03;;;2.51;98.83
3780;BME280;1905;52.482;9.802;2024-01-15T01:55:32;99105.53;;;2.48;99.35
3780;BME280;1905;52.482;9.802;2024-01-15T01:58:03;99120.38;;;2.46;98.67
3780;BME280;1905;52.482;9.802;2024-01-15T02:00:32;99114.41;;;2.42;98.48
3780;BME280;1905;52.482;9.802;2024-01-15T02:03:01;99116.06;;;2.45;98.73
3780;BME280;1905;52.482;9.802;2024-01-15T02:05:30;99092.50;;;2.48;98.99
3780;BME280;1905;52.482;9.802;2024-01-15T02:07:58;99096.13;;;2.44;99.12
3780;BME280;1905;52.482;9.802;2024-01-15T02:10:26;99111.66;;;2.47;98.85
3780;BME280;1905;52.482;9.802;2024-01-15T02:12:53;99102.31;;;2.42;98.89
3780;BME280;1905;52.482;9.802;2024-01-15T02:15:22;99094.31;;;2.46;98.60
3780;BME280;1905;52.482;9.802;2024-01-15T02:17:57;99106.56;;;2.44;99.17
3780;BME280;1905;52.482;9.802;2024-01-15T02:20:25;99101.16;;;2.49;98.77
3780;BME280;1905;52.482;9.802;2024-01-15T02:22:54;99082.94;;;2.49;98.37
3780;BME280;1905;52.482;9.802;2024-01-15T02:25:23;99087.25;;;2.50;98.64
3780;BME280;1905;52.482;9.802;2024-01-15T02:27:50;99074.25;;;2.48;99.04
3780;BME280;1905;52.482;9.802;2024-01-15T02:30:18;99057.00;;;2.46;98.77
3780;BME280;1905;52.482;9.802;2024-01-15T02:32:46;99067.38;;;2.47;98.98
3780;BME280;1905;52.482;9.802;2024-01-15T02:35:14;99085.47;;;2.50;98.91
3780;BME280;1905;52.482;9.802;2024-01-15T02:37:42;99073.38;;;2.49;98.76
3780;BME280;1905;52.482;9.802;2024-01-15T02:40:10;99077.63;;;2.52;98.67
3780;BME280;1905;52.482;9.802;2024-01-15T02:42:39;99070.75;;;2.49;98.74
3780;BME280;1905;52.482;9.802;2024-01-15T02:45:08;99068.16;;;2.49;98.31
3780;BME280;1905;52.482;9.802;2024-01-15T02:47:36;99061.25;;;2.48;98.07
3780;BME280;1905;52.482;9.802;2024-01-15T02:50:04;99068.06;;;2.52;98.39
3780;BME280;1905;52.482;9.802;2024-01-15T02:52:32;99075.06;;;2.50;98.48
3780;BME280;1905;52.482;9.802;2024-01-15T02:55:00;99068.91;;;2.53;98.48
3780;BME280;1905;52.482;9.802;2024-01-15T02:57:27;99069.06;;;2.48;98.35
3780;BME280;1905;52.482;9.802;2024-01-15T02:59:56;99073.25;;;2.52;98.91
3780;BME280;1905;52.482;9.802;2024-01-15T03:02:24;99080.22;;;2.52;98.57
3780;BME280;1905;52.482;9.802;2024-01-15T03:04:52;99083.69;;;2.52;98.45
3780;BME280;1905;52.482;9.802;2024-01-15T03:07:19;99096.53;;;2.57;97.95
3780;BME280;1905;52.482;9.802;2024-01-15T03:09:47;99079.16;;;2.57;98.65
3780;BME280;1905;52.482;9.802;2024-01-15T03:12:15;99081.00;;;2.54;98.55
3780;BME280;1905;52.482;9.802;2024-01-15T03:14:43;99067.94;;;2.55;98.59
3780;BME280;1905;52.482;9.802;2024-01-15T03:17:12;99081.88;;;2.54;98.08
3780;BME280;1905;52.482;9.802;2024-01-15T03:19:39;99089.59;;;2.56;98.25
3780;BME280;1905;52.482;9.802;2024-01-15T03:22:07;99085.25;;;2.56;97.97
3780;BME280;1905;52.482;9.802;2024-01-15T03:24:35;99085.25;;;2.56;98.35
3780;BME280;1905;52.482;9.802;2024-01-15T03:27:03;99087.97;;;2.53;99.01
3780;BME280;1905;52.482;9.802;2024-01-15T03:29:31;99092.16;;;2.57;99.13
3780;BME280;1905;52.482;9.802;2024-01-15T03:31:59;99093.13;;;2.55;98.66
3780;BME280;1905;52.482;9.802;2024-01-15T03:34:28;99097.41;;;2.56;98.39
3780;BME280;1905;52.482;9.802;2024-01-15T03:36:56;99096.41;;;2.60;98.99
3780;BME280;1905;52.482;9.802;2024-01-15T03:39:23;99107.69;;;2.60;98.67
3780;BME280;1905;52.482;9.802;2024-01-15T03:41:51;99114.84;;;2.55;98.19
3780;BME280;1905;52.482;9.802;2024-01-15T03:44:19;99102.59;;;2.57;98.81
3780;BME280;1905;52.482;9.802;2024-01-15T03:46:46;99086.88;;;2.59;99.13
3780;BME280;1905;52.482;9.802;2024-01-15T03:49:14;99095.66;;;2.56;98.82
3780;BME280;1905;52.482;9.802;2024-01-15T03:51:44;99101.75;;;2.57;99.25
3780;BME280;1905;52.482;9.802;2024-01-15T03:54:12;99098.25;;;2.58;98.90
3780;BME280;1905;52.482;9.802;2024-01-15T03:56:41;99092.06;;;2.60;98.99
3780;BME280;1905;52.482;9.802;2024-01-15T03:59:08;99098.25;;;2.58;99.42
3780;BME280;1905;52.482;9.802;2024-01-15T04:01:36;99093.88;;;2.58;98.33
3780;BME280;1905;52.482;9.802;2024-01-15T04:04:04;99097.38;;;2.57;98.18
3780;BME280;1905;52.482;9.802;2024-01-15T04:06:31;99090.41;;;2.58;98.64
3780;BME280;1905;52.482;9.802;2024-01-15T04:09:00;99099.91;;;2.59;98.01
3780;BME280;1905;52.482;9.802;2024-01-15T04:11:28;99090.47;;;2.56;98.20
3780;BME280;1905;52.482;9.802;2024-01-15T04:13:55;99100.66;;;2.62;98.45
3780;BME280;1905;52.482;9.802;2024-01-15T04:16:23;99090.34;;;2.59;98.95
3780;BME280;1905;52.482;9.802;2024-01-15T04:18:51;99091.09;;;2.63;98.43
3780;BME280;1905;52.482;9.802;2024-01-15T04:21:18;99083.38;;;2.60;98.55
3780;BME280;1905;52.482;9.802;2024-01-15T04:23:46;99092.06;;;2.60;98.28
3780;BME280;1905;52.482;9.802;2024-01-15T04:26:15;99092.97;;;2.59;99.19
3780;BME280;1905;52.482;9.802;2024-01-15T04:28:42;99090.31;;;2.61;99.35
3780;BME280;1905;52.482;9.802;2024-01-15T04:31:20;99085.13;;;2.59;98.99
3780;BME280;1905;52.482;9.802;2024-01-15T04:33:48;99083.47;;;2.58;99.05
3780;BME280;1905;52.482;9.802;2024-01-15T04:36:16;99083.38;;;2.60;99.21
3780;BME280;1905;52.482;9.802;2024-01-15T04:38:44;99098.94;;;2.61;98.90
3780;BME280;1905;52.482;9.802;2024-01-15T04:41:12;99086.97;;;2.57;99.13
3780;BME280;1905;52.482;9.802;2024-01-15T04:43:41;99099.09;;;2.58;99.47
3780;BME280;1905;52.482;9.802;2024-01-15T04:46:08;99091.28;;;2.58;99.33
3780;BME280;1905;52.482;9.802;2024-01-15T04:48:36;99088.66;;;2.58;98.98
3780;BME280;1905;52.482;9.802;2024-01-15T04:51:05;99085.25;;;2.56;98.82
3780;BME280;1905;52.482;9.802;2024-01-15T04:53:33;99085.25;;;2.56;98.70
3780;BME280;1905;52.482;9.802;2024-01-15T04:56:02;99081.75;;;2.57;98.97
3780;BME280;1905;52.482;9.802;2024-01-15T04:58:29;99069.63;;;2.56;99.39
3780;BME280;1905;52.482;9.802;2024-01-15T05:00:59;99064.41;;;2.56;98.92
3780;BME280;1905;52.482;9.802;2024-01-15T05:03:26;99080.03;;;2.56;99.29
3780;BME280;1905;52.482;9.802;2024-01-15T05:05:54;99072.19;;;2.58;99.48
3780;BME280;1905;52.482;9.802;2024-01-15T05:08:22;99071.31;;;2.57;99.60
3780;BME280;1905;52.482;9.802;2024-01-15T05:10:50;99070.44;;;2.58;99.31
3780;BME280;1905;52.482;9.802;2024-01-15T05:13:17;99074.81;;;2.56;99.17
3780;BME280;1905;52.482;9.802;2024-01-15T05:15:45;99072.19;;;2.58;99.34
3780;BME280;1905;52.482;9.802;2024-01-15T05:18:14;99060.94;;;2.56;98.59
3780;BME280;1905;52.482;9.802;2024-01-15T05:20:42;99056.59;;;2.56;99.41
3780;BME280;1905;52.482;9.802;2024-01-15T05:23:10;99054.22;;;2.50;99.53
3780;BME280;1905;52.482;9.802;2024-01-15T05:25:37;99055.91;;;2.51;99.60
3780;BME280;1905;52.482;9.802;2024-01-15T05:28:05;99061.91;;;2.53;99.91
3780;BME280;1905;52.482;9.802;2024-01-15T05:30:33;99061.91;;;2.53;99.75
3780;BME280;1905;52.482;9.802;2024-01-15T05:33:00;99064.53;;;2.53;99.00
3780;BME280;1905;52.482;9.802;2024-01-15T05:35:30;99054.06;;;2.55;98.81
3780;BME280;1905;52.482;9.802;2024-01-15T05:37:58;99066.22;;;2.54;98.87
3780;BME280;1905;52.482;9.802;2024-01-15T05:40:25;99065.47;;;2.51;99.27
3780;BME280;1905;52.482;9.802;2024-01-15T05:42:53;99066.44;;;2.48;99.21
3780;BME280;1905;52.482;9.802;2024-01-15T05:45:21;99063.81;;;2.50;99.30
3780;BME280;1905;52.482;9.802;2024-01-15T05:47:48;99069.16;;;2.45;99.41
3780;BME280;1905;52.482;9.802;2024-01-15T05:50:18;99082.09;;;2.48;99.82
3780;BME280;1905;52.482;9.802;2024-01-15T05:52:47;99075.19;;;2.47;100.00
3780;BME280;1905;52.482;9.802;2024-01-15T05:55:15;99076.88;;;2.48;99.76
3780;BME280;1905;52.482;9.802;2024-01-15T05:57:44;99063.84;;;2.48;99.35
3780;BME280;1905;52.482;9.802;2024-01-15T06:00:13;99073.38;;;2.49;99.77
3780;BME280;1905;52.482;9.802;2024-01-15T06:02:41;99062.94;;;2.49;99.10
3780;BME280;1905;52.482;9.802;2024-01-15T06:05:08;99054.22;;;2.50;99.37
3780;BME280;1905;52.482;9.802;2024-01-15T06:07:36;99067.31;;;2.49;99.27
3780;BME280;1905;52.482;9.802;2024-01-15T06:10:07;99059.41;;;2.50;100.00
3780;BME280;1905;52.482;9.802;2024-01-15T06:12:34;99054.22;;;2.50;99.06
3780;BME280;1905;52.482;9.802;2024-01-15T06:15:04;99067.22;;;2.50;99.62
3780;BME280;1905;52.482;9.802;2024-01-15T06:17:33;99063.69;;;2.53;99.80
3780;BME280;1905;52.482;9.802;2024-01-15T06:20:01;99066.34;;;2.51;99.14
3780;BME280;1905;52.482;9.802;2024-01-15T06:22:30;99061.13;;;2.51;99.77
3780;BME280;1905;52.482;9.802;2024-01-15T06:25:23;99063.84;;;2.48;99.80
3780;BME280;1905;52.482;9.802;2024-01-15T06:27:50;99065.66;;;2.46;99.55
3780;BME280;1905;52.482;9.802;2024-01-15T06:30:18;99066.44;;;2.48;100.00
3780;BME280;1905;52.482;9.802;2024-01-15T06:32:46;99066.34;;;2.51;99.66
3780;BME280;1905;52.482;9.802;2024-01-15T06:35:13;99062.03;;;2.50;99.75
3780;BME280;1905;52.482;9.802;2024-01-15T06:37:41;99065.56;;;2.49;99.67
3780;BME280;1905;52.482;9.802;2024-01-15T06:40:09;99065.66;;;2.46;100.00
3780;BME280;1905;52.482;9.802;2024-01-15T06:42:38;99073.25;;;2.52;99.14
3780;BME280;1905;52.482;9.802;2024-01-15T06:45:07;99076.75;;;2.51;99.58
3780;BME280;1905;52.482;9.802;2024-01-15T06:47:35;99076.66;;;2.54;99.67
3780;BME280;1905;52.482;9.802;2024-01-15T06:50:03;99074.94;;;2.53;99.23
3780;BME280;1905;52.482;9.802;2024-01-15T06:52:33;99081.13;;;2.51;99.93
3780;BME280;1905;52.482;9.802;2024-01-15T06:55:01;99071.50;;;2.53;99.55
3780;BME280;1905;52.482;9.802;2024-01-15T06:57:29;99077.44;;;2.56;99.12
3780;BME280;1905;52.482;9.802;2024-01-15T06:59:58;99075.78;;;2.54;98.87
3780;BME280;1905;52.482;9.802;2024-01-15T07:02:26;99083.50;;;2.57;99.80
3780;BME280;1905;52.482;9.802;2024-01-15T07:04:54;99074.81;;;2.56;98.91
3780;BME280;1905;52.482;9.802;2024-01-15T07:07:21;99077.50;;;2.55;99.54
3780;BME280;1905;52.482;9.802;2024-01-15T07:09:49;99074.13;;;2.53;99.47
3780;BME280;1905;52.482;9.802;2024-01-15T07:12:18;99078.47;;;2.52;98.87
3780;BME280;1905;52.482;9.802;2024-01-15T07:14:46;99073.16;;;2.55;98.71
3780;BME280;1905;52.482;9.802;2024-01-15T07:17:15;99078.47;;;2.52;99.62
3780;BME280;1905;52.482;9.802;2024-01-15T07:19:42;99081.88;;;2.54;99.32
3780;BME280;1905;52.482;9.802;2024-01-15T07:22:10;99091.44;;;2.54;99.00
3780;BME280;1905;52.482;9.802;2024-01-15T07:24:38;99090.56;;;2.53;99.64
3780;BME280;1905;52.482;9.802;2024-01-15T07:27:05;99091.38;;;2.55;98.80
3780;BME280;1905;52.482;9.802;2024-01-15T07:29:33;99092.38;;;2.51;99.27
3780;BME280;1905;52.482;9.802;2024-01-15T07:32:04;99081.88;;;2.54;99.61
3780;BME280;1905;52.482;9.802;2024-01-15T07:34:35;99089.69;;;2.54;99.44
3780;BME280;1905;52.482;9.802;2024-01-15T07:37:03;99094.00;;;2.55;99.56
3780;BME280;1905;52.482;9.802;2024-01-15T07:39:31;99096.53;;;2.57;98.98
3780;BME280;1905;52.482;9.802;2024-01-15T07:41:58;99086.97;;;2.57;99.00
3780;BME280;1905;52.482;9.802;2024-01-15T07:44:26;99101.00;;;2.53;99.52
3780;BME280;1905;52.482;9.802;2024-01-15T07:46:54;99092.16;;;2.57;99.47
3780;BME280;1905;52.482;9.802;2024-01-15T07:49:21;99095.75;;;2.55;100.00
3780;BME280;1905;52.482;9.802;2024-01-15T07:51:51;99102.78;;;2.53;99.71
3780;BME280;1905;52.482;9.802;2024-01-15T07:54:19;99111.31;;;2.56;100.00
3780;BME280;1905;52.482;9.802;2024-01-15T07:56:53;99103.56;;;2.55;99.83
3780;BME280;1905;52.482;9.802;2024-01-15T07:59:21;99101.00;;;2.53;100.00
3780;BME280;1905;52.482;9.802;2024-01-15T08:01:48;99101.09;;;2.50;100.00
3780;BME280;1905;52.482;9.802;2024-01-15T08:04:16;99107.91;;;2.54;99.86
3780;BME280;1905;52.482;9.802;2024-01-15T08:06:44;99096.63;;;2.54;99.81
3780;BME280;1905;52.482;9.802;2024-01-15T08:09:13;99101.00;;;2.53;100.00
3780;BME280;1905;52.482;9.802;2024-01-15T08:11:42;99113.22;;;2.51;99.83
3780;BME280;1905;52.482;9.802;2024-01-15T08:14:10;99121.03;;;2.51;99.98
3780;BME280;1905;52.482;9.802;2024-01-15T08:16:38;99114.94;;;2.52;99.98
3780;BME280;1905;52.482;9.802;2024-01-15T08:19:07;99108.09;;;2.50;100.00
3780;BME280;1905;52.482;9.802;2024-01-15T08:21:35;99113.22;;;2.51;100.00
3780;BME280;1905;52.482;9.802;2024-01-15T08:24:03;99115.84;;;2.51;99.79
3780;BME280;1905;52.482;9.802;2024-01-15T08:26:32;99109.78;;;2.51;100.00
3780;BME280;1905;52.482;9.802;2024-01-15T08:29:00;99113.34;;;2.48;99.58
3780;BME280;1905;52.482;9.802;2024-01-15T08:31:27;99112.44;;;2.49;99.74
3780;BME280;1905;52.482;9.802;2024-01-15T08:33:55;99123.84;;;2.47;100.00
3780;BME280;1905;52.482;9.802;2024-01-15T08:36:23;99117.69;;;2.48;100.00
3780;BME280;1905;52.482;9.802;2024-01-15T08:38:51;99124.69;;;2.47;100.00
3780;BME280;1905;52.482;9.802;2024-01-15T08:41:18;99116.88;;;2.47;99.95
3780;BME280;1905;52.482;9.802;2024-01-15T08:43:47;99111.53;;;2.50;100.00
3780;BME280;1905;52.482;9.802;2024-01-15T08:46:15;99126.38;;;2.48;100.00
3780;BME280;1905;52.482;9.802;2024-01-15T08:48:43;99122.09;;;2.47;100.00
3780;BME280;1905;52.482;9.802;2024-01-15T08:51:11;99123.75;;;2.48;100.00
3780;BME280;1905;52.482;9.802;2024-01-15T08:53:38;99118.66;;;2.45;100.00
3780;BME280;1905;52.482;9.802;2024-01-15T08:56:06;99125.50;;;2.48;99.81
3780;BME280;1905;52.482;9.802;2024-01-15T08:58:35;99115.94;;;2.48;99.99
3780;BME280;1905;52.482;9.802;2024-01-15T09:01:04;99117.66;;;2.49;99.89
3780;BME280;1905;52.482;9.802;2024-01-15T09:03:32;99108.13;;;2.48;99.62
3780;BME280;1905;52.482;9.802;2024-01-15T09:06:00;99121.94;;;2.50;99.76
3780;BME280;1905;52.482;9.802;2024-01-15T09:08:28;99121.94;;;2.50;100.00
3780;BME280;1905;52.482;9.802;2024-01-15T09:10:55;99112.34;;;2.52;100.00
3780;BME280;1905;52.482;9.802;2024-01-15T09:13:23;99121.00;;;2.53;100.00
3780;BME280;1905;52.482;9.802;2024-01-15T09:15:51;99114.94;;;2.52;100.00
3780;BME280;1905;52.482;9.802;2024-01-15T09:18:20;99123.47;;;2.56;100.00
3780;BME280;1905;52.482;9.802;2024-01-15T09:20:48;99140.78;;;2.58;100.00
3780;BME280;1905;52.482;9.802;2024-01-15T09:23:16;99127.00;;;2.55;100.00
3780;BME280;1905;52.482;9.802;2024-01-15T09:25:44;99122.53;;;2.58;99.81
3780;BME280;1905;52.482;9.802;2024-01-15T09:28:11;99116.28;;;2.62;99.67
3780;BME280;1905;52.482;9.802;2024-01-15T09:30:40;99121.63;;;2.59;100.00
3780;BME280;1905;52.482;9.802;2024-01-15T09:33:07;99133.63;;;2.63;100.00
3780;BME280;1905;52.482;9.802;2024-01-15T09:35:37;99126.72;;;2.62;100.00
3780;BME280;1905;52.482;9.802;2024-01-15T09:38:05;99131.94;;;2.62;99.72
3780;BME280;1905;52.482;9.802;2024-01-15T09:40:32;99131.72;;;2.68;99.82
3780;BME280;1905;52.482;9.802;2024-01-15T09:43:01;99136.00;;;2.69;100.00
3780;BME280;1905;52.482;9.802;2024-01-15T09:45:29;99148.91;;;2.72;99.53
3780;BME280;1905;52.482;9.802;2024-01-15T09:47:57;99145.34;;;2.75;100.00
3780;BME280;1905;52.482;9.802;2024-01-15T09:50:25;99144.44;;;2.76;99.21
3780;BME280;1905;52.482;9.802;2024-01-15T09:52:54;99139.13;;;2.79;99.70
3780;BME280;1905;52.482;9.802;2024-01-15T09:55:24;99141.66;;;2.80;99.49
3780;BME280;1905;52.482;9.802;2024-01-15T09:57:52;99147.81;;;2.79;100.00
3780;BME280;1905;52.482;9.802;2024-01-15T10:00:23;99142.47;;;2.82;99.56
3780;BME280;1905;52.482;9.802;2024-01-15T10:02:51;99150.31;;;2.82;99.02
3780;BME280;1905;52.482;9.802;2024-01-15T10:05:19;99139.88;;;2.82;100.00
3780;BME280;1905;52.482;9.802;2024-01-15T10:07:47;99138.84;;;2.86;98.54
3780;BME280;1905;52.482;9.802;2024-01-15T10:10:18;99143.25;;;2.84;99.43
3780;BME280;1905;52.482;9.802;2024-01-15T10:12:45;99145.81;;;2.86;98.93
3780;BME280;1905;52.482;9.802;2024-01-15T10:15:13;99153.59;;;2.87;99.77
3780;BME280;1905;52.482;9.802;2024-01-15T10:17:41;99146.44;;;2.92;99.06
3780;BME280;1905;52.482;9.802;2024-01-15T10:20:10;99156.00;;;2.92;98.55
3780;BME280;1905;52.482;9.802;2024-01-15T10:22:40;99148.16;;;2.93;99.36
3780;BME280;1905;52.482;9.802;2024-01-15T10:25:12;99148.25;;;2.90;98.54
3780;BME280;1905;52.482;9.802;2024-01-15T10:27:41;99138.66;;;2.91;98.44
3780;BME280;1905;52.482;9.802;2024-01-15T10:30:10;99136.88;;;2.93;99.42
3780;BME280;1905;52.482;9.802;2024-01-15T10:32:40;99127.28;;;2.93;99.16
3780;BME280;1905;52.482;9.802;2024-01-15T10:35:08;99138.38;;;2.98;99.28
3780;BME280;1905;52.482;9.802;2024-01-15T10:37:36;99133.09;;;3.00;98.59
3780;BME280;1905;52.482;9.802;2024-01-15T10:40:05;99134.81;;;3.01;98.63
3780;BME280;1905;52.482;9.802;2024-01-15T10:42:33;99131.28;;;3.02;98.98
3780;BME280;1905;52.482;9.802;2024-01-15T10:45:03;99132.34;;;2.96;98.53
3780;BME280;1905;52.482;9.802;2024-01-15T10:47:31;99135.53;;;3.05;98.17
3780;BME280;1905;52.482;9.802;2024-01-15T10:50:00;99129.41;;;3.06;99.10
3780;BME280;1905;52.482;9.802;2024-01-15T10:52:29;99123.31;;;3.07;99.15
3780;BME280;1905;52.482;9.802;2024-01-15T10:54:57;99133.63;;;3.10;99.34
3780;BME280;1905;52.482;9.802;2024-01-15T10:57:34;99146.59;;;3.11;99.16
3780;BME280;1905;52.482;9.802;2024-01-15T11:00:04;99132.88;;;3.06;98.70
3780;BME280;1905;52.482;9.802;2024-01-15T11:02:32;99135.41;;;3.08;98.29
3780;BME280;1905;52.482;9.802;2024-01-15T11:05:02;99125.91;;;3.07;98.92
3780;BME280;1905;52.482;9.802;2024-01-15T11:07:30;99133.34;;;3.16;98.43
3780;BME280;1905;52.482;9.802;2024-01-15T11:09:58;99119.53;;;3.14;98.07
3780;BME280;1905;52.482;9.802;2024-01-15T11:12:26;99125.72;;;3.11;98.11
3780;BME280;1905;52.482;9.802;2024-01-15T11:15:02;99117.81;;;3.13;98.46
3780;BME280;1905;52.482;9.802;2024-01-15T11:17:58;99127.34;;;3.14;98.58
3780;BME280;1905;52.482;9.802;2024-01-15T11:20:27;99124.75;;;3.14;98.85
3780;BME280;1905;52.482;9.802;2024-01-15T11:22:54;99120.38;;;3.14;98.51
3780;BME280;1905;52.482;9.802;2024-01-15T11:25:24;99120.19;;;3.19;97.83
3780;BME280;1905;52.482;9.802;2024-01-15T11:28:01;99124.53;;;3.20;98.28
3780;BME280;1905;52.482;9.802;2024-01-15T11:30:30;99120.97;;;3.21;97.86
3780;BME280;1905;52.482;9.802;2024-01-15T11:32:57;99113.91;;;3.24;97.59
3780;BME280;1905;52.482;9.802;2024-01-15T11:35:49;99133.00;;;3.25;96.56
3780;BME280;1905;52.482;9.802;2024-01-15T11:38:29;99123.59;;;3.21;96.62
3780;BME280;1905;52.482;9.802;2024-01-15T11:40:58;99126.16;;;3.22;97.27
3780;BME280;1905;52.482;9.802;2024-01-15T11:43:26;99113.03;;;3.24;96.82
3780;BME280;1905;52.482;9.802;2024-01-15T11:45:54;99126.91;;;3.26;97.12
3780;BME280;1905;52.482;9.802;2024-01-15T11:48:22;99129.50;;;3.26;97.08
3780;BME280;1905;52.482;9.802;2024-01-15T11:50:55;99124.28;;;3.26;97.37
3780;BME280;1905;52.482;9.802;2024-01-15T11:53:32;99130.31;;;3.26;97.00
3780;BME280;1905;52.482;9.802;2024-01-15T11:56:02;99115.41;;;3.30;96.80
3780;BME280;1905;52.482;9.802;2024-01-15T11:58:30;99111.16;;;3.27;96.99
3780;BME280;1905;52.482;9.802;2024-01-15T12:00:58;99110.19;;;3.30;96.96
3780;BME280;1905;52.482;9.802;2024-01-15T12:03:26;99112.75;;;3.31;97.15
3780;BME280;1905;52.482;9.802;2024-01-15T12:05:55;99102.44;;;3.28;97.13
3780;BME280;1905;52.482;9.802;2024-01-15T12:08:24;99114.56;;;3.29;96.99
3780;BME280;1905;52.482;9.802;2024-01-15T12:10:53;99117.13;;;3.31;96.60
3780;BME280;1905;52.482;9.802;2024-01-15T12:13:21;99104.94;;;3.31;96.98
3780;BME280;1905;52.482;9.802;2024-01-15T12:15:48;99107.66;;;3.28;96.27
3780;BME280;1905;52.482;9.802;2024-01-15T12:18:18;99110.19;;;3.30;96.26
3780;BME280;1905;52.482;9.802;2024-01-15T12:20:46;99112.88;;;3.28;96.95
3780;BME280;1905;52.482;9.802;2024-01-15T12:23:16;99120.50;;;3.33;97.07
3780;BME280;1905;52.482;9.802;2024-01-15T12:25:45;99108.25;;;3.35;95.83
3780;BME280;1905;52.482;9.802;2024-01-15T12:28:14;99108.09;;;3.39;96.31
3780;BME280;1905;52.482;9.802;2024-01-15T12:30:42;99111.78;;;3.34;96.22
3780;BME280;1905;52.482;9.802;2024-01-15T12:33:11;99114.19;;;3.38;96.03
3780;BME280;1905;52.482;9.802;2024-01-15T12:35:39;99109.84;;;3.39;96.55
3780;BME280;1905;52.482;9.802;2024-01-15T12:38:06;99110.84;;;3.35;96.16
3780;BME280;1905;52.482;9.802;2024-01-15T12:40:35;99114.28;;;3.37;95.91
3780;BME280;1905;52.482;9.802;2024-01-15T12:43:05;99123.66;;;3.41;96.18
3780;BME280;1905;52.482;9.802;2024-01-15T12:45:33;99115.91;;;3.39;95.62
3780;BME280;1905;52.482;9.802;2024-01-15T12:48:02;99115.06;;;3.39;96.27
3780;BME280;1905;52.482;9.802;2024-01-15T12:50:30;99134.84;;;3.44;95.53
3780;BME280;1905;52.482;9.802;2024-01-15T12:52:58;99119.31;;;3.41;95.08
3780;BME280;1905;52.482;9.802;2024-01-15T12:55:26;99110.69;;;3.39;94.47
3780;BME280;1905;52.482;9.802;2024-01-15T12:57:55;99111.41;;;3.43;95.84
3780;BME280;1905;52.482;9.802;2024-01-15T13:00:22;99113.97;;;3.44;94.84
3780;BME280;1905;52.482;9.802;2024-01-15T13:02:52;99114.81;;;3.45;95.12
3780;BME280;1905;52.482;9.802;2024-01-15T13:05:22;99109.44;;;3.48;95.18
3780;BME280;1905;52.482;9.802;2024-01-15T13:07:51;99123.44;;;3.47;96.04
3780;BME280;1905;52.482;9.802;2024-01-15T13:10:18;99131.25;;;3.47;95.98
3780;BME280;1905;52.482;9.802;2024-01-15T13:12:47;99121.78;;;3.44;95.82
3780;BME280;1905;52.482;9.802;2024-01-15T13:15:16;99131.38;;;3.44;96.18
3780;BME280;1905;52.482;9.802;2024-01-15T13:17:44;99129.00;;;3.38;96.15
3780;BME280;1905;52.482;9.802;2024-01-15T13:20:12;99125.50;;;3.39;96.40
3780;BME280;1905;52.482;9.802;2024-01-15T13:22:40;99124.63;;;3.38;95.90
3780;BME280;1905;52.482;9.802;2024-01-15T13:25:11;99110.81;;;3.36;97.12
3780;BME280;1905;52.482;9.802;2024-01-15T13:27:39;99108.25;;;3.35;96.55
3780;BME280;1905;52.482;9.802;2024-01-15T13:30:10;99112.63;;;3.34;96.95
3780;BME280;1905;52.482;9.802;2024-01-15T13:32:40;99125.63;;;3.36;96.35
3780;BME280;1905;52.482;9.802;2024-01-15T13:35:09;99120.41;;;3.36;97.08
3780;BME280;1905;52.482;9.802;2024-01-15T13:37:40;99127.44;;;3.34;96.51
3780;BME280;1905;52.482;9.802;2024-01-15T13:40:09;99124.88;;;3.32;95.88
3780;BME280;1905;52.482;9.802;2024-01-15T13:42:44;99136.94;;;3.35;96.38
3780;BME280;1905;52.482;9.802;2024-01-15T13:45:12;99146.69;;;3.31;96.45